Time;durP1;ratioP1;P1;durP2;ratioP2;P2;SDS_P1;SDS_P2;PMS_P1;PMS_P2;Temp;Humidity;BMP_temperature;BMP_pressure;BME280_temperature;BME280_humidity;BME280_pressure;Samples;Min_cycle;Max_cycle;Signal;HPM_P1;HPM_P2
2023/06/20 00:01:29;;;;;;;8.40;3.47;;;;;;;;;;5037547;28;20029;-71
2023/06/20 00:03:54;;;;;;;10.60;3.43;;;;;;;;;;5035990;28;20111;-71
2023/06/20 00:06:22;;;;;;;5.47;3.27;;;;;;;;;;5039799;28;20271;-71
2023/06/20 00:08:47;;;;;;;4.88;3.17;;;;;;;;;;5034826;28;20763;-71
2023/06/20 00:11:12;;;;;;;6.30;3.10;;;;;;;;;;5037912;28;20112;-72
2023/06/20 00:13:39;;;;;;;7.00;3.33;;;;;;;;;;5045765;28;20029;-72
2023/06/20 00:16:04;;;;;;;10.93;3.28;;;;;;;;;;5040357;28;20025;-71
2023/06/20 00:18:30;;;;;;;7.87;3.70;;;;;;;;;;5039498;28;20021;-72
2023/06/20 00:20:55;;;;;;;7.75;4.40;;;;;;;;;;5035946;28;20527;-72
2023/06/20 00:23:21;;;;;;;9.27;3.83;;;;;;;;;;5038144;28;20041;-71
2023/06/20 00:25:46;;;;;;;12.77;3.22;;;;;;;;;;5036346;28;20279;-72
2023/06/20 00:28:16;;;;;;;6.95;3.08;;;;;;;;;;5040449;28;20029;-71
2023/06/20 00:30:41;;;;;;;8.07;2.95;;;;;;;;;;5040063;28;20009;-71
2023/06/20 00:33:06;;;;;;;5.37;3.20;;;;;;;;;;5037239;28;20367;-71
2023/06/20 00:35:31;;;;;;;5.35;2.80;;;;;;;;;;5042765;28;20315;-71
2023/06/20 00:37:56;;;;;;;5.03;3.23;;;;;;;;;;5048519;28;20044;-71
2023/06/20 00:40:22;;;;;;;6.23;3.37;;;;;;;;;;5047455;28;20275;-71
2023/06/20 00:42:47;;;;;;;6.47;3.15;;;;;;;;;;5049603;28;20367;-71
2023/06/20 00:45:32;;;;;;;5.07;3.20;;;;;;;;;;5050324;28;20013;-72
2023/06/20 00:47:58;;;;;;;10.77;3.30;;;;;;;;;;5048928;28;20344;-71
2023/06/20 00:50:26;;;;;;;5.60;2.72;;;;;;;;;;5049940;28;20454;-71
2023/06/20 00:52:54;;;;;;;6.07;3.30;;;;;;;;;;5047241;28;20028;-71
2023/06/20 00:55:19;;;;;;;5.10;2.45;;;;;;;;;;5050130;28;20071;-71
2023/06/20 00:57:45;;;;;;;6.90;3.35;;;;;;;;;;5049455;28;20034;-71
2023/06/20 01:00:12;;;;;;;4.05;2.67;;;;;;;;;;5049845;28;20021;-72
2023/06/20 01:02:37;;;;;;;7.80;3.72;;;;;;;;;;5049099;28;20040;-71
2023/06/20 01:05:02;;;;;;;6.10;2.83;;;;;;;;;;5049094;28;20355;-71
2023/06/20 01:07:41;;;;;;;5.80;3.05;;;;;;;;;;5049406;28;20059;-72
2023/06/20 01:10:24;;;;;;;9.05;3.53;;;;;;;;;;5042867;28;20024;-72
2023/06/20 01:13:19;;;;;;;10.63;3.00;;;;;;;;;;5037693;28;20112;-72
2023/06/20 01:15:51;;;;;;;7.70;3.35;;;;;;;;;;5029871;28;20157;-71
2023/06/20 01:18:27;;;;;;;13.30;5.03;;;;;;;;;;5037899;28;20017;-71
2023/06/20 01:20:58;;;;;;;5.88;3.55;;;;;;;;;;5042654;28;20116;-71
2023/06/20 01:23:26;;;;;;;6.57;3.80;;;;;;;;;;5042396;28;20033;-71
2023/06/20 01:25:56;;;;;;;9.27;4.05;;;;;;;;;;5046675;28;20124;-71
2023/06/20 01:28:43;;;;;;;9.32;3.60;;;;;;;;;;5049552;28;20432;-71
2023/06/20 01:31:11;;;;;;;7.53;3.53;;;;;;;;;;5048835;28;20025;-71
2023/06/20 01:33:56;;;;;;;11.48;3.60;;;;;;;;;;5048229;28;20106;-71
2023/06/20 01:36:22;;;;;;;10.73;4.43;;;;;;;;;;5048946;28;20041;-71
2023/06/20 01:38:49;;;;;;;14.68;3.65;;;;;;;;;;5047362;28;20025;-71
2023/06/20 01:41:16;;;;;;;6.72;4.10;;;;;;;;;;5039231;28;20365;-71
2023/06/20 01:43:43;;;;;;;6.55;4.03;;;;;;;;;;5041831;28;20052;-71
2023/06/20 01:46:09;;;;;;;9.18;3.50;;;;;;;;;;5039246;28;20025;-71
2023/06/20 01:48:35;;;;;;;13.43;3.17;;;;;;;;;;5033897;28;20028;-71
2023/06/20 01:51:00;;;;;;;11.25;3.70;;;;;;;;;;5036790;28;20032;-71
2023/06/20 01:53:27;;;;;;;7.20;3.50;;;;;;;;;;5036717;28;20032;-71
2023/06/20 01:55:52;;;;;;;4.95;3.20;;;;;;;;;;5037144;28;20386;-71
2023/06/20 01:58:18;;;;;;;6.03;3.80;;;;;;;;;;5048539;28;20027;-71
2023/06/20 02:00:44;;;;;;;6.70;3.45;;;;;;;;;;5042207;28;20037;-71
2023/06/20 02:03:10;;;;;;;6.63;3.83;;;;;;;;;;5048694;28;20102;-71
2023/06/20 02:05:36;;;;;;;7.22;4.03;;;;;;;;;;5047303;28;20021;-71
2023/06/20 02:08:01;;;;;;;6.07;3.50;;;;;;;;;;5047935;28;20071;-71
2023/06/20 02:10:27;;;;;;;6.93;3.95;;;;;;;;;;5046285;28;20025;-71
2023/06/20 02:12:54;;;;;;;5.60;3.75;;;;;;;;;;5038943;28;20028;-71
2023/06/20 02:15:20;;;;;;;7.10;3.50;;;;;;;;;;5041227;28;20025;-72
2023/06/20 02:17:46;;;;;;;8.02;3.22;;;;;;;;;;5033445;28;20025;-72
2023/06/20 02:20:12;;;;;;;5.07;3.58;;;;;;;;;;5034002;28;20492;-74
2023/06/20 02:22:37;;;;;;;10.32;3.78;;;;;;;;;;5033455;28;20095;-71
2023/06/20 02:25:05;;;;;;;7.25;3.97;;;;;;;;;;5034665;28;20216;-72
2023/06/20 02:27:31;;;;;;;6.88;3.63;;;;;;;;;;5036096;28;20472;-78
2023/06/20 02:29:57;;;;;;;9.27;4.28;;;;;;;;;;5035148;28;20106;-71
2023/06/20 02:32:23;;;;;;;9.40;4.20;;;;;;;;;;5035003;28;20035;-71
2023/06/20 02:34:49;;;;;;;8.70;3.72;;;;;;;;;;5033273;28;20072;-70
2023/06/20 02:37:14;;;;;;;7.70;4.30;;;;;;;;;;5035178;28;20013;-72
2023/06/20 02:39:40;;;;;;;8.20;4.43;;;;;;;;;;5037207;28;20018;-74
2023/06/20 02:42:05;;;;;;;6.10;3.45;;;;;;;;;;5040119;28;21865;-74
2023/06/20 02:44:30;;;;;;;6.55;4.07;;;;;;;;;;5035659;28;20021;-74
2023/06/20 02:46:56;;;;;;;6.47;3.40;;;;;;;;;;5035692;28;20100;-74
2023/06/20 02:49:30;;;;;;;6.28;3.70;;;;;;;;;;5035616;28;22185;-71
2023/06/20 02:52:14;;;;;;;6.97;4.07;;;;;;;;;;5036887;28;20091;-70
2023/06/20 02:54:57;;;;;;;7.50;4.35;;;;;;;;;;5041726;28;20029;-72
2023/06/20 02:57:23;;;;;;;6.13;4.15;;;;;;;;;;5041940;28;20033;-73
2023/06/20 03:00:00;;;;;;;6.93;4.55;;;;;;;;;;5042006;28;20020;-73
2023/06/20 03:02:28;;;;;;;6.60;4.25;;;;;;;;;;5042118;28;20028;-72
2023/06/20 03:04:56;;;;;;;9.23;4.20;;;;;;;;;;5038704;28;20581;-72
2023/06/20 03:07:23;;;;;;;8.38;5.00;;;;;;;;;;5042563;28;20470;-73
2023/06/20 03:09:48;;;;;;;12.20;4.30;;;;;;;;;;5040203;28;20108;-71
2023/06/20 03:12:13;;;;;;;7.80;4.60;;;;;;;;;;5041548;28;20104;-72
2023/06/20 03:14:40;;;;;;;8.63;4.45;;;;;;;;;;5042719;28;20328;-70
2023/06/20 03:17:05;;;;;;;6.72;4.10;;;;;;;;;;5039112;28;20049;-75
2023/06/20 03:19:32;;;;;;;6.83;4.13;;;;;;;;;;5039899;28;20047;-70
2023/06/20 03:21:58;;;;;;;8.55;4.75;;;;;;;;;;5038448;28;20023;-74
2023/06/20 03:24:23;;;;;;;11.60;4.20;;;;;;;;;;5037841;28;20017;-70
2023/06/20 03:26:49;;;;;;;8.00;4.78;;;;;;;;;;5039443;28;20628;-71
2023/06/20 03:29:14;;;;;;;9.45;4.88;;;;;;;;;;5040652;28;20473;-74
2023/06/20 03:31:39;;;;;;;10.35;4.35;;;;;;;;;;5040630;28;20036;-70
2023/06/20 03:34:04;;;;;;;9.23;4.37;;;;;;;;;;5040893;28;20052;-75
2023/06/20 03:36:29;;;;;;;6.50;4.23;;;;;;;;;;5039052;28;20082;-70
2023/06/20 03:38:55;;;;;;;9.53;4.30;;;;;;;;;;5036176;28;20263;-76
2023/06/20 03:41:20;;;;;;;8.03;4.70;;;;;;;;;;5033787;28;20383;-70
2023/06/20 03:43:45;;;;;;;7.80;4.50;;;;;;;;;;5036779;28;20270;-72
2023/06/20 03:46:10;;;;;;;7.70;4.43;;;;;;;;;;5038421;28;20366;-73
2023/06/20 03:48:35;;;;;;;10.57;5.20;;;;;;;;;;5039846;28;20052;-70
2023/06/20 03:51:01;;;;;;;7.83;4.60;;;;;;;;;;5040751;28;20279;-72
2023/06/20 03:53:26;;;;;;;9.77;4.60;;;;;;;;;;5038296;28;20283;-71
2023/06/20 03:55:51;;;;;;;6.60;4.23;;;;;;;;;;5042090;28;20609;-70
2023/06/20 03:58:16;;;;;;;8.30;4.63;;;;;;;;;;5043417;28;20748;-72
2023/06/20 04:00:42;;;;;;;8.00;3.50;;;;;;;;;;5040839;28;20029;-73
2023/06/20 04:03:07;;;;;;;8.07;4.20;;;;;;;;;;5039670;28;20099;-73
2023/06/20 04:05:32;;;;;;;9.75;5.28;;;;;;;;;;5038056;28;20122;-71
2023/06/20 04:08:00;;;;;;;7.45;4.47;;;;;;;;;;5037992;28;20580;-70
2023/06/20 04:10:26;;;;;;;7.75;5.05;;;;;;;;;;5038657;28;20025;-71
2023/06/20 04:12:51;;;;;;;8.43;4.50;;;;;;;;;;5041254;28;20033;-70
2023/06/20 04:15:16;;;;;;;12.38;5.05;;;;;;;;;;5038549;28;20791;-76
2023/06/20 04:17:41;;;;;;;8.75;4.85;;;;;;;;;;5041753;28;20104;-75
2023/06/20 04:20:12;;;;;;;6.60;4.50;;;;;;;;;;5039045;28;20099;-73
2023/06/20 04:22:42;;;;;;;8.60;4.43;;;;;;;;;;5040753;28;20045;-70
2023/06/20 04:25:07;;;;;;;9.93;4.45;;;;;;;;;;5042360;28;20100;-73
2023/06/20 04:27:32;;;;;;;8.98;4.88;;;;;;;;;;5038258;28;20735;-71
2023/06/20 04:29:58;;;;;;;8.57;5.20;;;;;;;;;;5043890;28;20026;-73
2023/06/20 04:32:23;;;;;;;7.20;4.50;;;;;;;;;;5049193;28;20366;-70
2023/06/20 04:34:52;;;;;;;7.70;4.50;;;;;;;;;;5043190;28;20021;-76
2023/06/20 04:37:17;;;;;;;8.43;4.80;;;;;;;;;;5048782;28;20263;-70
2023/06/20 04:39:43;;;;;;;8.63;4.80;;;;;;;;;;5049698;28;20088;-71
2023/06/20 04:42:08;;;;;;;9.50;4.43;;;;;;;;;;5050529;28;20071;-70
2023/06/20 04:44:33;;;;;;;8.40;3.90;;;;;;;;;;5050882;28;20293;-70
2023/06/20 04:46:58;;;;;;;6.97;4.47;;;;;;;;;;5049058;28;20271;-73
2023/06/20 04:49:24;;;;;;;8.03;4.30;;;;;;;;;;5048068;28;20025;-71
2023/06/20 04:51:49;;;;;;;5.30;3.60;;;;;;;;;;5046651;28;20267;-74
2023/06/20 04:54:14;;;;;;;6.60;3.90;;;;;;;;;;5050133;28;20298;-70
2023/06/20 04:56:42;;;;;;;7.73;4.00;;;;;;;;;;5048436;28;20283;-71
2023/06/20 04:59:08;;;;;;;8.07;4.43;;;;;;;;;;5049979;28;20266;-74
2023/06/20 05:01:33;;;;;;;6.38;4.30;;;;;;;;;;5050799;28;20044;-73
2023/06/20 05:03:58;;;;;;;7.32;4.20;;;;;;;;;;5049976;28;20024;-70
2023/06/20 05:06:23;;;;;;;7.10;4.25;;;;;;;;;;5048308;28;20041;-74
2023/06/20 05:08:48;;;;;;;7.57;4.30;;;;;;;;;;5050561;28;20027;-70
2023/06/20 05:11:14;;;;;;;9.37;4.73;;;;;;;;;;5049908;28;20263;-73
2023/06/20 05:13:39;;;;;;;7.70;4.22;;;;;;;;;;5047972;28;20072;-70
2023/06/20 05:16:04;;;;;;;7.75;4.45;;;;;;;;;;5045694;28;20024;-71
2023/06/20 05:18:30;;;;;;;3.65;2.15;;;;;;;;;;5034360;28;20027;-72
2023/06/20 05:20:55;;;;;;;6.30;4.20;;;;;;;;;;5037246;28;20025;-70
2023/06/20 05:23:21;;;;;;;6.80;4.33;;;;;;;;;;5039176;28;20127;-72
2023/06/20 05:25:46;;;;;;;9.68;4.05;;;;;;;;;;5045257;28;20275;-72
2023/06/20 05:28:11;;;;;;;7.40;3.17;;;;;;;;;;5046302;28;20024;-73
2023/06/20 05:30:36;;;;;;;7.90;4.20;;;;;;;;;;5039727;28;20328;-72
2023/06/20 05:33:01;;;;;;;8.13;4.13;;;;;;;;;;5036018;28;20316;-73
2023/06/20 05:35:26;;;;;;;9.18;5.55;;;;;;;;;;5034181;28;20272;-71
2023/06/20 05:37:52;;;;;;;10.80;4.53;;;;;;;;;;5034406;28;20048;-72
2023/06/20 05:40:17;;;;;;;6.20;4.63;;;;;;;;;;5031885;28;20458;-73
2023/06/20 05:42:42;;;;;;;10.05;5.13;;;;;;;;;;5032939;28;20279;-72
2023/06/20 05:45:08;;;;;;;5.57;4.07;;;;;;;;;;5032028;28;20028;-72
2023/06/20 05:47:33;;;;;;;6.93;4.28;;;;;;;;;;5034372;28;20478;-74
2023/06/20 05:49:59;;;;;;;9.10;4.80;;;;;;;;;;5033593;28;21839;-70
2023/06/20 05:52:24;;;;;;;6.47;3.55;;;;;;;;;;5037442;28;20354;-70
2023/06/20 05:54:49;;;;;;;7.25;4.32;;;;;;;;;;5040803;28;20013;-72
2023/06/20 05:57:15;;;;;;;10.67;5.60;;;;;;;;;;5038347;28;20029;-71
2023/06/20 05:59:40;;;;;;;8.45;4.18;;;;;;;;;;5034618;28;20302;-72
2023/06/20 06:02:05;;;;;;;8.40;4.37;;;;;;;;;;5037223;28;20033;-73
2023/06/20 06:04:31;;;;;;;8.15;4.22;;;;;;;;;;5037432;28;20024;-74
2023/06/20 06:06:57;;;;;;;5.90;4.00;;;;;;;;;;5039401;28;20024;-72
2023/06/20 06:09:22;;;;;;;11.15;3.67;;;;;;;;;;5042377;28;20394;-71
2023/06/20 06:11:47;;;;;;;6.43;3.67;;;;;;;;;;5049126;28;20029;-71
2023/06/20 06:14:12;;;;;;;5.38;3.25;;;;;;;;;;5047415;28;20644;-71
2023/06/20 06:16:37;;;;;;;8.77;4.47;;;;;;;;;;5047046;28;20147;-74
2023/06/20 06:19:03;;;;;;;6.70;4.10;;;;;;;;;;5046175;28;20949;-71
2023/06/20 06:21:29;;;;;;;12.80;5.78;;;;;;;;;;5043900;28;20275;-73
2023/06/20 06:23:54;;;;;;;5.65;3.13;;;;;;;;;;5045741;28;20023;-73
2023/06/20 06:26:19;;;;;;;8.20;3.78;;;;;;;;;;5047912;28;20037;-71
2023/06/20 06:28:44;;;;;;;9.97;3.93;;;;;;;;;;5050370;28;20040;-71
2023/06/20 06:31:11;;;;;;;9.13;4.13;;;;;;;;;;5053151;28;20021;-70
2023/06/20 06:33:37;;;;;;;7.80;4.03;;;;;;;;;;5046169;28;20016;-74
2023/06/20 06:36:02;;;;;;;8.93;4.30;;;;;;;;;;5049461;28;20104;-73
2023/06/20 06:38:27;;;;;;;5.47;3.20;;;;;;;;;;5052439;28;20175;-70
2023/06/20 06:40:55;;;;;;;5.03;2.88;;;;;;;;;;5053274;28;20021;-74
2023/06/20 06:43:21;;;;;;;8.27;2.67;;;;;;;;;;5052923;28;20108;-74
2023/06/20 06:45:46;;;;;;;11.13;4.53;;;;;;;;;;5051412;28;20132;-70
2023/06/20 06:48:11;;;;;;;9.82;4.15;;;;;;;;;;5039259;28;20025;-70
2023/06/20 06:50:37;;;;;;;10.07;4.13;;;;;;;;;;5039248;28;20025;-72
2023/06/20 06:53:02;;;;;;;7.10;3.63;;;;;;;;;;5037856;28;20660;-70
2023/06/20 06:55:27;;;;;;;8.70;3.47;;;;;;;;;;5039484;28;20279;-74
2023/06/20 06:57:53;;;;;;;6.05;3.97;;;;;;;;;;5039355;28;20021;-70
2023/06/20 07:00:18;;;;;;;5.78;4.25;;;;;;;;;;5037557;28;20099;-75
2023/06/20 07:02:44;;;;;;;5.97;3.53;;;;;;;;;;5039779;28;20036;-73
2023/06/20 07:05:10;;;;;;;7.03;4.55;;;;;;;;;;5040525;28;20025;-73
2023/06/20 07:07:35;;;;;;;5.13;2.88;;;;;;;;;;5039979;28;20509;-72
2023/06/20 07:10:00;;;;;;;7.73;4.37;;;;;;;;;;5036574;28;20428;-70
2023/06/20 07:12:25;;;;;;;6.97;3.90;;;;;;;;;;5040080;28;20049;-71
2023/06/20 07:14:56;;;;;;;7.27;4.33;;;;;;;;;;5039536;28;20052;-71
2023/06/20 07:17:21;;;;;;;5.53;2.38;;;;;;;;;;5036208;28;20260;-71
2023/06/20 07:19:46;;;;;;;4.93;2.53;;;;;;;;;;5038334;28;20757;-71
2023/06/20 07:22:11;;;;;;;7.80;4.30;;;;;;;;;;5037775;28;20324;-70
2023/06/20 07:24:36;;;;;;;5.40;3.70;;;;;;;;;;5049112;28;20115;-71
2023/06/20 07:27:01;;;;;;;7.40;4.10;;;;;;;;;;5042725;28;20657;-71
2023/06/20 07:29:27;;;;;;;7.18;2.85;;;;;;;;;;5045760;28;20075;-73
2023/06/20 07:31:52;;;;;;;6.93;2.70;;;;;;;;;;5038630;28;20033;-71
2023/06/20 07:34:17;;;;;;;3.70;2.67;;;;;;;;;;5038656;28;20267;-74
2023/06/20 07:36:42;;;;;;;4.45;2.85;;;;;;;;;;5038020;28;20295;-73
2023/06/20 07:39:08;;;;;;;3.57;2.33;;;;;;;;;;5037703;28;20013;-71
2023/06/20 07:41:33;;;;;;;5.80;3.08;;;;;;;;;;5046552;28;20274;-72
2023/06/20 07:43:58;;;;;;;5.10;3.50;;;;;;;;;;5042790;28;20110;-70
2023/06/20 07:46:24;;;;;;;4.80;2.67;;;;;;;;;;5049786;28;20963;-71
2023/06/20 07:48:50;;;;;;;4.30;3.28;;;;;;;;;;5039415;28;20025;-71
2023/06/20 07:51:15;;;;;;;4.70;2.88;;;;;;;;;;5044393;28;20022;-73
2023/06/20 07:53:41;;;;;;;13.25;3.05;;;;;;;;;;5037718;28;20025;-74
2023/06/20 07:56:06;;;;;;;9.68;3.25;;;;;;;;;;5037084;28;20020;-71
2023/06/20 07:58:31;;;;;;;3.78;2.75;;;;;;;;;;5038756;28;20102;-72
2023/06/20 08:00:57;;;;;;;7.30;4.17;;;;;;;;;;5037871;28;20139;-71
2023/06/20 08:03:24;;;;;;;4.13;3.15;;;;;;;;;;5039612;28;20024;-71
2023/06/20 08:05:50;;;;;;;3.97;3.00;;;;;;;;;;5041157;28;20027;-77
2023/06/20 08:08:15;;;;;;;5.45;3.33;;;;;;;;;;5035887;28;20025;-73
2023/06/20 08:10:40;;;;;;;10.70;1.97;;;;;;;;;;5036803;28;20115;-74
2023/06/20 08:13:06;;;;;;;9.10;3.87;;;;;;;;;;5040246;28;20036;-74
2023/06/20 08:15:31;;;;;;;5.03;3.70;;;;;;;;;;5042660;28;20268;-72
2023/06/20 08:17:56;;;;;;;6.77;4.13;;;;;;;;;;5048036;28;20271;-74
2023/06/20 08:20:21;;;;;;;4.90;3.40;;;;;;;;;;5049624;28;20025;-71
2023/06/20 08:22:46;;;;;;;5.77;3.57;;;;;;;;;;5051919;28;20056;-72
2023/06/20 08:25:11;;;;;;;5.40;3.80;;;;;;;;;;5045982;28;20331;-71
2023/06/20 08:27:37;;;;;;;7.03;3.97;;;;;;;;;;5051501;28;20029;-71
2023/06/20 08:30:03;;;;;;;8.27;4.57;;;;;;;;;;5043376;28;20033;-71
2023/06/20 08:32:28;;;;;;;6.57;3.28;;;;;;;;;;5049142;28;20021;-71
2023/06/20 08:34:53;;;;;;;10.10;4.73;;;;;;;;;;5049963;28;20037;-71
2023/06/20 08:37:21;;;;;;;4.03;2.70;;;;;;;;;;5051713;28;20478;-75
2023/06/20 08:39:47;;;;;;;4.22;2.30;;;;;;;;;;5049918;28;20726;-73
2023/06/20 08:42:12;;;;;;;3.73;2.50;;;;;;;;;;5050580;28;20308;-71
2023/06/20 08:44:37;;;;;;;5.17;2.90;;;;;;;;;;5043963;28;20636;-71
2023/06/20 08:47:03;;;;;;;6.50;3.53;;;;;;;;;;5047382;28;20751;-70
2023/06/20 08:49:28;;;;;;;4.95;3.40;;;;;;;;;;5049843;28;20735;-71
2023/06/20 08:51:57;;;;;;;7.87;4.07;;;;;;;;;;5046455;28;20085;-73
2023/06/20 08:54:23;;;;;;;6.60;3.53;;;;;;;;;;5049089;28;20303;-72
2023/06/20 08:56:48;;;;;;;4.68;3.10;;;;;;;;;;5050607;28;20055;-71
2023/06/20 08:59:14;;;;;;;3.95;2.20;;;;;;;;;;5046253;28;20040;-71
2023/06/20 09:01:39;;;;;;;5.43;3.30;;;;;;;;;;5048438;28;20485;-72
2023/06/20 09:04:05;;;;;;;4.40;3.00;;;;;;;;;;5045127;28;20029;-74
2023/06/20 09:06:38;;;;;;;5.82;3.28;;;;;;;;;;5048693;28;20021;-70
2023/06/20 09:09:13;;;;;;;3.58;2.90;;;;;;;;;;5048764;28;20017;-73
2023/06/20 09:11:39;;;;;;;6.70;3.92;;;;;;;;;;5048796;28;20030;-70
2023/06/20 09:14:04;;;;;;;2.53;2.13;;;;;;;;;;5049042;28;20031;-73
2023/06/20 09:16:29;;;;;;;7.60;4.00;;;;;;;;;;5046452;28;20273;-71
2023/06/20 09:18:58;;;;;;;8.90;4.23;;;;;;;;;;5050076;28;20461;-71
2023/06/20 09:21:23;;;;;;;5.05;2.25;;;;;;;;;;5048737;28;20255;-73
2023/06/20 09:23:59;;;;;;;4.87;3.63;;;;;;;;;;5049546;28;20079;-71
2023/06/20 09:26:25;;;;;;;4.20;3.00;;;;;;;;;;5047772;28;20652;-71
2023/06/20 09:28:50;;;;;;;4.13;2.63;;;;;;;;;;5045882;28;20025;-71
2023/06/20 09:31:16;;;;;;;3.25;2.10;;;;;;;;;;5044438;28;20112;-71
2023/06/20 09:33:42;;;;;;;7.22;4.43;;;;;;;;;;5041091;28;20116;-70
2023/06/20 09:36:17;;;;;;;6.27;4.60;;;;;;;;;;5043885;28;20091;-71
2023/06/20 09:38:50;;;;;;;8.10;2.75;;;;;;;;;;5042222;28;20095;-71
2023/06/20 09:41:16;;;;;;;11.38;4.18;;;;;;;;;;5046862;28;20031;-71
2023/06/20 09:43:41;;;;;;;6.00;3.63;;;;;;;;;;5045706;28;20021;-72
2023/06/20 09:46:07;;;;;;;5.55;3.50;;;;;;;;;;5046499;28;20096;-71
2023/06/20 09:48:32;;;;;;;7.53;3.97;;;;;;;;;;5044320;28;20324;-71
2023/06/20 09:50:58;;;;;;;5.07;3.42;;;;;;;;;;5043990;28;20428;-76
2023/06/20 09:53:30;;;;;;;5.13;3.80;;;;;;;;;;5045767;28;20021;-71
2023/06/20 09:55:56;;;;;;;6.10;4.28;;;;;;;;;;5047638;28;20529;-73
2023/06/20 09:58:24;;;;;;;5.30;3.20;;;;;;;;;;5043495;28;20103;-74
2023/06/20 10:00:50;;;;;;;5.20;3.15;;;;;;;;;;5044314;28;20382;-74
2023/06/20 10:03:16;;;;;;;6.55;3.10;;;;;;;;;;5042606;28;20025;-73
2023/06/20 10:05:43;;;;;;;6.93;2.80;;;;;;;;;;5043364;28;20044;-73
2023/06/20 10:08:08;;;;;;;5.00;3.42;;;;;;;;;;5045949;28;20612;-71
2023/06/20 10:10:33;;;;;;;5.85;4.15;;;;;;;;;;5047560;28;20060;-71
2023/06/20 10:12:58;;;;;;;5.10;3.40;;;;;;;;;;5046234;28;20104;-74
2023/06/20 10:15:25;;;;;;;6.28;4.10;;;;;;;;;;5043667;28;20136;-71
2023/06/20 10:17:51;;;;;;;9.32;4.20;;;;;;;;;;5043629;28;20101;-74
2023/06/20 10:20:28;;;;;;;6.60;4.13;;;;;;;;;;5041583;28;20378;-71
2023/06/20 10:22:54;;;;;;;5.47;3.58;;;;;;;;;;5041198;28;20032;-75
2023/06/20 10:25:19;;;;;;;5.55;3.95;;;;;;;;;;5045579;28;20029;-72
2023/06/20 10:27:53;;;;;;;4.30;2.80;;;;;;;;;;5048456;28;20029;-71
2023/06/20 10:30:38;;;;;;;6.13;4.30;;;;;;;;;;5041382;28;20286;-75
2023/06/20 10:33:07;;;;;;;4.45;3.85;;;;;;;;;;5043238;28;20040;-74
2023/06/20 10:35:33;;;;;;;5.18;4.32;;;;;;;;;;5047556;28;20024;-74
2023/06/20 10:38:08;;;;;;;2.27;1.93;;;;;;;;;;5045905;28;20029;-71
2023/06/20 10:40:34;;;;;;;6.80;3.88;;;;;;;;;;5047512;28;20029;-71
2023/06/20 10:42:59;;;;;;;5.70;4.10;;;;;;;;;;5043802;28;20030;-71
2023/06/20 10:45:27;;;;;;;7.10;3.83;;;;;;;;;;5049208;28;20020;-72
2023/06/20 10:47:53;;;;;;;8.30;4.40;;;;;;;;;;5047970;28;20524;-73
2023/06/20 10:50:19;;;;;;;5.25;3.75;;;;;;;;;;5041688;28;20029;-71
2023/06/20 10:52:44;;;;;;;5.32;4.18;;;;;;;;;;5043419;28;20025;-71
2023/06/20 10:55:14;;;;;;;4.63;4.03;;;;;;;;;;5047780;28;20107;-73
2023/06/20 10:57:43;;;;;;;4.38;3.58;;;;;;;;;;5043032;28;20445;-75
2023/06/20 11:00:14;;;;;;;5.35;3.70;;;;;;;;;;5049493;28;20366;-71
2023/06/20 11:02:39;;;;;;;8.15;4.70;;;;;;;;;;5049186;28;20519;-70
2023/06/20 11:05:06;;;;;;;4.53;3.03;;;;;;;;;;5049710;28;20108;-74
2023/06/20 11:07:31;;;;;;;7.70;4.50;;;;;;;;;;5045602;28;20024;-71
2023/06/20 11:09:56;;;;;;;7.43;4.53;;;;;;;;;;5048818;28;20025;-73
2023/06/20 11:12:21;;;;;;;6.73;4.57;;;;;;;;;;5046172;28;20123;-71
2023/06/20 11:14:46;;;;;;;5.27;2.40;;;;;;;;;;5048596;28;20398;-75
2023/06/20 11:17:11;;;;;;;4.47;2.27;;;;;;;;;;5047255;28;20062;-71
2023/06/20 11:19:38;;;;;;;6.13;3.60;;;;;;;;;;5051588;28;20082;-73
2023/06/20 11:22:04;;;;;;;8.18;4.90;;;;;;;;;;5047740;28;20099;-73
2023/06/20 11:24:31;;;;;;;9.07;4.10;;;;;;;;;;5052031;28;20100;-73
2023/06/20 11:27:09;;;;;;;7.97;3.97;;;;;;;;;;5048586;28;20044;-73
2023/06/20 11:29:37;;;;;;;4.85;3.72;;;;;;;;;;5052893;28;20021;-73
2023/06/20 11:32:09;;;;;;;6.25;3.92;;;;;;;;;;5051728;28;20013;-72
2023/06/20 11:34:50;;;;;;;4.95;3.85;;;;;;;;;;5050440;28;20025;-73
2023/06/20 11:37:15;;;;;;;5.35;4.00;;;;;;;;;;5051605;28;20478;-73
2023/06/20 11:39:40;;;;;;;4.33;2.77;;;;;;;;;;5052581;28;20027;-73
2023/06/20 11:42:15;;;;;;;4.83;2.43;;;;;;;;;;5046605;28;20040;-73
2023/06/20 11:44:40;;;;;;;4.93;2.65;;;;;;;;;;5045831;28;20067;-72
2023/06/20 11:47:06;;;;;;;5.43;3.97;;;;;;;;;;5052430;28;20159;-73
2023/06/20 11:49:32;;;;;;;6.32;4.45;;;;;;;;;;5048126;28;20013;-73
2023/06/20 11:51:57;;;;;;;7.55;3.05;;;;;;;;;;5047661;28;20017;-73
2023/06/20 11:54:24;;;;;;;6.20;3.53;;;;;;;;;;5046595;28;20029;-73
2023/06/20 11:56:50;;;;;;;6.60;4.05;;;;;;;;;;5049254;28;20656;-73
2023/06/20 11:59:21;;;;;;;5.25;3.25;;;;;;;;;;5043686;28;20108;-73
2023/06/20 12:01:46;;;;;;;5.72;3.97;;;;;;;;;;5037297;28;21585;-73
2023/06/20 12:04:14;;;;;;;5.05;3.40;;;;;;;;;;5046931;28;20017;-73
2023/06/20 12:06:42;;;;;;;5.90;3.25;;;;;;;;;;5047752;28;20033;-73
2023/06/20 12:09:18;;;;;;;6.60;3.83;;;;;;;;;;5050677;28;20092;-73
2023/06/20 12:11:46;;;;;;;5.10;3.83;;;;;;;;;;5048415;28;20432;-73
2023/06/20 12:14:11;;;;;;;6.63;4.03;;;;;;;;;;5048253;28;20024;-73
2023/06/20 12:16:37;;;;;;;4.57;3.30;;;;;;;;;;5050694;28;20408;-73
2023/06/20 12:19:02;;;;;;;5.80;3.80;;;;;;;;;;5047708;28;20029;-73
2023/06/20 12:21:27;;;;;;;5.93;4.13;;;;;;;;;;5048101;28;20873;-73
2023/06/20 12:23:52;;;;;;;5.70;3.97;;;;;;;;;;5046651;28;20677;-73
2023/06/20 12:26:18;;;;;;;6.40;3.95;;;;;;;;;;5044798;28;20673;-73
2023/06/20 12:28:43;;;;;;;5.07;3.70;;;;;;;;;;5044089;28;20032;-73
2023/06/20 12:31:09;;;;;;;2.25;1.90;;;;;;;;;;5050561;28;20279;-73
2023/06/20 12:33:34;;;;;;;4.43;3.20;;;;;;;;;;5050484;28;20103;-73
2023/06/20 12:35:59;;;;;;;5.45;3.10;;;;;;;;;;5051839;28;20036;-73
2023/06/20 12:38:25;;;;;;;4.68;3.13;;;;;;;;;;5049364;28;20109;-73
2023/06/20 12:40:51;;;;;;;6.65;3.42;;;;;;;;;;5038716;28;20025;-73
2023/06/20 12:43:16;;;;;;;4.80;3.25;;;;;;;;;;5045041;28;20032;-73
2023/06/20 12:45:41;;;;;;;5.30;3.53;;;;;;;;;;5048412;28;20035;-73
2023/06/20 12:48:07;;;;;;;7.28;4.40;;;;;;;;;;5045183;28;20009;-73
2023/06/20 12:50:32;;;;;;;3.30;2.73;;;;;;;;;;5044362;28;20021;-73
2023/06/20 12:52:57;;;;;;;4.88;3.10;;;;;;;;;;5048371;28;20543;-73
2023/06/20 12:55:22;;;;;;;3.23;2.40;;;;;;;;;;5047037;28;20031;-73
2023/06/20 12:57:47;;;;;;;3.73;2.80;;;;;;;;;;5050049;28;20540;-73
2023/06/20 13:00:13;;;;;;;5.17;3.20;;;;;;;;;;5050143;28;20263;-73
2023/06/20 13:02:39;;;;;;;6.43;3.50;;;;;;;;;;5048317;28;20029;-73
2023/06/20 13:05:04;;;;;;;7.53;3.60;;;;;;;;;;5047235;28;20028;-73
2023/06/20 13:07:29;;;;;;;5.43;3.50;;;;;;;;;;5043212;28;20104;-75
2023/06/20 13:09:55;;;;;;;6.03;3.60;;;;;;;;;;5046027;28;20355;-74
2023/06/20 13:12:21;;;;;;;4.33;2.90;;;;;;;;;;5047397;28;20056;-73
2023/06/20 13:14:47;;;;;;;3.80;2.67;;;;;;;;;;5045109;28;20025;-73
2023/06/20 13:17:14;;;;;;;4.90;3.58;;;;;;;;;;5045042;28;20082;-74
2023/06/20 13:19:39;;;;;;;4.15;2.58;;;;;;;;;;5045585;28;20028;-74
2023/06/20 13:22:04;;;;;;;5.60;3.37;;;;;;;;;;5042557;28;20386;-73
2023/06/20 13:24:30;;;;;;;9.75;3.67;;;;;;;;;;5048264;28;20032;-74
2023/06/20 13:26:55;;;;;;;5.72;3.17;;;;;;;;;;5047287;28;20025;-74
2023/06/20 13:29:21;;;;;;;4.95;3.40;;;;;;;;;;5041982;28;20078;-73
2023/06/20 13:31:46;;;;;;;7.28;3.63;;;;;;;;;;5048674;28;20093;-74
2023/06/20 13:34:11;;;;;;;4.37;3.07;;;;;;;;;;5046695;28;20021;-73
2023/06/20 13:36:36;;;;;;;8.23;3.43;;;;;;;;;;5046356;28;20045;-73
2023/06/20 13:39:02;;;;;;;4.03;3.23;;;;;;;;;;5048969;28;20016;-73
2023/06/20 13:41:27;;;;;;;5.50;3.20;;;;;;;;;;5048299;28;20267;-73
2023/06/20 13:43:52;;;;;;;7.80;3.43;;;;;;;;;;5049586;28;20437;-74
2023/06/20 13:46:21;;;;;;;4.80;3.00;;;;;;;;;;5049229;28;20053;-73
2023/06/20 13:48:47;;;;;;;5.22;3.30;;;;;;;;;;5039742;28;20036;-73
2023/06/20 13:51:14;;;;;;;5.30;3.55;;;;;;;;;;5042953;28;20056;-73
2023/06/20 13:53:39;;;;;;;5.63;3.10;;;;;;;;;;5044764;28;20028;-73
2023/06/20 13:56:05;;;;;;;3.33;2.23;;;;;;;;;;5049120;28;20032;-73
2023/06/20 13:58:30;;;;;;;3.30;2.27;;;;;;;;;;5049383;28;20017;-73
2023/06/20 14:00:56;;;;;;;4.90;2.90;;;;;;;;;;5048318;28;20501;-74
2023/06/20 14:03:21;;;;;;;5.30;3.40;;;;;;;;;;5043408;28;20421;-73
2023/06/20 14:05:46;;;;;;;4.80;1.33;;;;;;;;;;5044635;28;20048;-73
2023/06/20 14:08:11;;;;;;;3.60;2.13;;;;;;;;;;5047815;28;20025;-73
2023/06/20 14:10:36;;;;;;;4.33;2.50;;;;;;;;;;5045399;28;20478;-73
2023/06/20 14:13:01;;;;;;;4.50;2.60;;;;;;;;;;5046454;28;20025;-73
2023/06/20 14:15:27;;;;;;;5.43;2.75;;;;;;;;;;5048554;28;20013;-73
2023/06/20 14:17:55;;;;;;;4.87;3.47;;;;;;;;;;5047021;28;20013;-73
2023/06/20 14:20:20;;;;;;;3.30;2.30;;;;;;;;;;5046917;28;20481;-73
2023/06/20 14:22:45;;;;;;;5.40;3.20;;;;;;;;;;5041933;28;20048;-74
2023/06/20 14:25:10;;;;;;;4.47;2.13;;;;;;;;;;5042791;28;20020;-73
2023/06/20 14:27:35;;;;;;;5.17;3.60;;;;;;;;;;5042088;28;20279;-73
2023/06/20 14:30:01;;;;;;;4.33;2.80;;;;;;;;;;5044903;28;20279;-73
2023/06/20 14:32:26;;;;;;;2.87;1.97;;;;;;;;;;5043773;28;20021;-73
2023/06/20 14:34:51;;;;;;;7.10;2.90;;;;;;;;;;5044184;28;20267;-73
2023/06/20 14:37:16;;;;;;;4.25;3.42;;;;;;;;;;5044215;28;20275;-73
2023/06/20 14:39:41;;;;;;;3.07;2.47;;;;;;;;;;5044545;28;20017;-73